createdAt,value
2022-12-11T00:00:28.388Z,36.15
2022-12-11T00:02:56.567Z,37.47
2022-12-11T00:05:24.135Z,31.35
2022-12-11T00:07:51.352Z,30.05
2022-12-11T00:10:19.788Z,33.63
2022-12-11T00:12:47.008Z,32.42
2022-12-11T00:15:14.250Z,34.13
2022-12-11T00:17:41.673Z,32.42
2022-12-11T00:20:10.031Z,36.47
2022-12-11T00:22:37.295Z,38.30
2022-12-11T00:25:05.028Z,41.03
2022-12-11T00:27:32.427Z,39.58
2022-12-11T00:29:59.899Z,41.67
2022-12-11T00:32:28.531Z,42.63
2022-12-11T00:34:56.095Z,39.47
2022-12-11T00:37:23.710Z,39.42
2022-12-11T00:39:50.938Z,34.22
2022-12-11T00:42:18.175Z,35.60
2022-12-11T00:44:45.402Z,36.53
2022-12-11T00:47:12.771Z,34.80
2022-12-11T00:49:42.832Z,37.22
2022-12-11T00:52:12.337Z,38.83
2022-12-11T00:54:39.567Z,43.58
2022-12-11T00:57:06.770Z,39.47
2022-12-11T00:59:33.976Z,37.40
2022-12-11T01:02:01.180Z,39.67
2022-12-11T01:04:28.360Z,36.13
2022-12-11T01:06:55.509Z,34.45
2022-12-11T01:09:41.654Z,36.90
2022-12-11T01:12:08.877Z,33.70
2022-12-11T01:14:36.092Z,32.92
2022-12-11T01:17:03.524Z,34.20
2022-12-11T01:19:31.097Z,40.17
2022-12-11T01:21:58.305Z,39.05
2022-12-11T01:24:25.457Z,37.35
2022-12-11T01:26:52.768Z,41.10
2022-12-11T01:29:19.930Z,40.92
2022-12-11T01:31:47.079Z,37.97
2022-12-11T01:34:14.271Z,38.97
2022-12-11T01:36:42.714Z,37.78
2022-12-11T01:39:09.876Z,34.25
2022-12-11T01:41:37.090Z,38.17
2022-12-11T01:44:15.659Z,35.15
2022-12-11T01:46:43.546Z,42.13
2022-12-11T01:49:15.014Z,37.72
2022-12-11T01:51:52.282Z,38.72
2022-12-11T01:54:23.012Z,38.63
2022-12-11T01:56:55.970Z,37.15
2022-12-11T02:02:03.190Z,39.65
2022-12-11T02:04:33.039Z,37.60
2022-12-11T02:07:00.346Z,39.65
2022-12-11T02:09:32.430Z,37.25
2022-12-11T02:12:29.689Z,37.87
2022-12-11T02:15:11.189Z,36.45
2022-12-11T02:17:50.904Z,35.60
2022-12-11T02:20:44.677Z,31.25
2022-12-11T02:23:11.815Z,35.35
2022-12-11T02:26:18.196Z,36.38
2022-12-11T02:28:48.240Z,33.97
2022-12-11T02:31:42.369Z,36.33
2022-12-11T02:34:23.441Z,36.75
2022-12-11T02:37:01.957Z,33.28
2022-12-11T02:39:31.647Z,35.10
2022-12-11T02:41:59.932Z,31.55
2022-12-11T02:44:32.252Z,32.78
2022-12-11T02:47:01.118Z,35.28
2022-12-11T02:49:29.018Z,34.55
2022-12-11T02:51:58.023Z,35.63
2022-12-11T02:54:32.229Z,34.65
2022-12-11T02:57:09.181Z,34.58
2022-12-11T02:59:41.453Z,37.13
2022-12-11T03:02:09.342Z,26.17
2022-12-11T03:04:37.374Z,35.05
2022-12-11T03:07:14.087Z,35.47
2022-12-11T03:09:48.361Z,38.70
2022-12-11T03:12:24.542Z,38.67
2022-12-11T03:14:51.893Z,36.88
2022-12-11T03:17:23.699Z,36.10
2022-12-11T03:20:06.592Z,30.70
2022-12-11T03:23:30.788Z,36.67
2022-12-11T03:28:49.350Z,42.43
2022-12-11T03:31:39.155Z,44.08
2022-12-11T03:34:18.096Z,37.03
2022-12-11T03:36:48.515Z,33.25
2022-12-11T03:39:25.247Z,39.70
2022-12-11T03:41:55.591Z,38.80
2022-12-11T03:44:24.897Z,38.47
2022-12-11T03:46:55.654Z,33.85
2022-12-11T03:49:38.348Z,34.65
2022-12-11T03:52:09.085Z,34.70
2022-12-11T03:54:38.041Z,32.65
2022-12-11T03:57:08.409Z,34.08
2022-12-11T03:59:35.707Z,34.78
2022-12-11T04:02:10.585Z,37.58
2022-12-11T04:04:40.546Z,35.67
2022-12-11T04:07:09.268Z,32.65
2022-12-11T04:09:36.731Z,38.05
2022-12-11T04:12:04.022Z,33.88
2022-12-11T04:14:50.034Z,35.40
2022-12-11T04:17:37.335Z,34.97
2022-12-11T04:20:25.332Z,35.42
2022-12-11T04:23:10.902Z,32.30
2022-12-11T04:25:38.073Z,34.50
2022-12-11T04:28:05.248Z,31.75
2022-12-11T04:30:34.465Z,31.33
2022-12-11T04:33:02.170Z,32.65
2022-12-11T04:35:29.465Z,33.53
2022-12-11T04:37:56.770Z,32.85
2022-12-11T04:40:24.564Z,34.50
2022-12-11T04:42:51.815Z,35.78
2022-12-11T04:45:19.347Z,33.72
2022-12-11T04:47:46.870Z,35.60
2022-12-11T04:50:15.828Z,36.20
2022-12-11T04:52:43.288Z,35.83
2022-12-11T04:55:12.107Z,33.60
2022-12-11T04:57:39.825Z,34.13
2022-12-11T05:00:11.186Z,33.58
2022-12-11T05:02:41.664Z,35.75
2022-12-11T05:05:11.539Z,34.42
2022-12-11T05:07:40.984Z,35.13
2022-12-11T05:10:09.246Z,32.97
2022-12-11T05:12:37.012Z,33.15
2022-12-11T05:15:04.737Z,34.90
2022-12-11T05:17:31.945Z,34.65
2022-12-11T05:19:59.193Z,33.72
2022-12-11T05:22:26.373Z,36.08
2022-12-11T05:24:53.588Z,35.42
2022-12-11T05:27:20.984Z,36.50
2022-12-11T05:29:48.166Z,34.63
2022-12-11T05:32:15.829Z,33.72
2022-12-11T05:34:43.006Z,35.97
2022-12-11T05:37:10.759Z,34.35
2022-12-11T05:39:38.371Z,37.53
2022-12-11T05:42:05.666Z,35.63
2022-12-11T05:44:33.304Z,36.47
2022-12-11T05:47:00.712Z,35.08
2022-12-11T05:49:31.007Z,33.88
2022-12-11T05:51:58.451Z,31.00
2022-12-11T05:54:25.647Z,33.15
2022-12-11T05:56:52.825Z,34.72
2022-12-11T05:59:20.156Z,31.55
2022-12-11T06:01:47.591Z,35.92
2022-12-11T06:04:14.942Z,35.88
2022-12-11T06:06:43.771Z,33.13
2022-12-11T06:09:16.353Z,30.23
2022-12-11T06:11:43.640Z,35.20
2022-12-11T06:14:12.017Z,31.23
2022-12-11T06:16:39.419Z,32.03
2022-12-11T06:19:06.928Z,32.15
2022-12-11T06:21:34.265Z,34.95
2022-12-11T06:24:04.345Z,31.58
2022-12-11T06:26:32.124Z,32.83
2022-12-11T06:28:59.433Z,30.83
2022-12-11T06:31:26.882Z,32.08
2022-12-11T06:33:54.385Z,32.70
2022-12-11T06:36:23.978Z,30.38
2022-12-11T06:38:52.310Z,30.40
2022-12-11T06:41:19.677Z,28.52
2022-12-11T06:43:47.253Z,27.75
2022-12-11T06:46:18.670Z,28.98
2022-12-11T06:48:46.872Z,30.15
2022-12-11T06:51:20.580Z,28.75
2022-12-11T06:53:56.576Z,30.80
2022-12-11T06:56:24.844Z,30.52
2022-12-11T06:58:52.300Z,33.40
2022-12-11T07:01:24.589Z,37.20
2022-12-11T07:03:58.207Z,37.10
2022-12-11T07:06:29.278Z,32.70
2022-12-11T07:08:57.070Z,32.75
2022-12-11T07:11:24.357Z,32.35
2022-12-11T07:13:51.514Z,35.15
2022-12-11T07:16:19.225Z,33.58
2022-12-11T07:18:49.662Z,31.48
2022-12-11T07:21:18.004Z,31.15
2022-12-11T07:23:45.533Z,28.52
2022-12-11T07:26:17.094Z,32.63
2022-12-11T07:28:44.961Z,34.65
2022-12-11T07:31:23.850Z,36.92
2022-12-11T07:33:56.187Z,29.38
2022-12-11T07:36:24.866Z,34.47
2022-12-11T07:38:53.443Z,34.47
2022-12-11T07:41:21.524Z,31.85
2022-12-11T07:43:49.362Z,34.60
2022-12-11T07:46:21.526Z,35.95
2022-12-11T07:48:49.607Z,31.20
2022-12-11T07:51:27.628Z,33.10
2022-12-11T07:53:59.501Z,34.15
2022-12-11T07:56:28.394Z,34.55
2022-12-11T07:58:56.406Z,31.17
2022-12-11T08:01:26.875Z,30.40
2022-12-11T08:03:55.612Z,32.92
2022-12-11T08:06:42.380Z,34.63
2022-12-11T08:09:18.904Z,33.15
2022-12-11T08:11:50.568Z,33.10
2022-12-11T08:14:19.497Z,35.72
2022-12-11T08:16:47.294Z,33.80
2022-12-11T08:19:15.756Z,33.20
2022-12-11T08:21:43.408Z,32.15
2022-12-11T08:24:11.123Z,34.83
2022-12-11T08:26:38.427Z,32.00
2022-12-11T08:29:05.592Z,31.45
2022-12-11T08:31:33.721Z,33.22
2022-12-11T08:34:01.055Z,58.60
2022-12-11T08:36:28.596Z,35.15
2022-12-11T08:38:56.647Z,88.78
2022-12-11T08:41:30.137Z,33.03
2022-12-11T08:44:00.217Z,28.45
2022-12-11T08:46:32.817Z,33.53
2022-12-11T08:49:00.258Z,27.52
2022-12-11T08:51:30.292Z,26.25
2022-12-11T08:54:00.410Z,26.17
2022-12-11T08:56:28.996Z,22.58
2022-12-11T08:58:59.112Z,25.65
2022-12-11T09:01:27.985Z,25.02
2022-12-11T09:03:57.380Z,22.67
2022-12-11T09:06:27.938Z,24.33
2022-12-11T09:08:58.711Z,23.98
2022-12-11T09:11:33.788Z,23.52
2022-12-11T09:14:07.120Z,25.48
2022-12-11T09:16:39.651Z,25.98
2022-12-11T09:19:17.788Z,27.55
2022-12-11T09:21:45.343Z,25.17
2022-12-11T09:24:13.836Z,21.30
2022-12-11T09:26:41.901Z,20.75
2022-12-11T09:29:10.740Z,18.73
2022-12-11T09:31:38.064Z,18.08
2022-12-11T09:34:08.824Z,21.23
2022-12-11T09:36:39.173Z,17.17
2022-12-11T09:39:08.916Z,17.80
2022-12-11T09:42:10.819Z,18.42
2022-12-11T09:44:49.155Z,19.25
2022-12-11T09:47:23.404Z,18.17
2022-12-11T09:50:02.073Z,18.23
2022-12-11T09:52:50.771Z,20.88
2022-12-11T09:55:24.260Z,17.42
2022-12-11T09:58:27.159Z,17.27
2022-12-11T10:01:25.912Z,18.00
2022-12-11T10:04:34.381Z,17.27
2022-12-11T10:07:18.633Z,17.90
2022-12-11T10:10:27.400Z,20.25
2022-12-11T10:13:57.014Z,18.50
2022-12-11T10:16:39.787Z,21.67
2022-12-11T10:19:19.450Z,21.83
2022-12-11T10:21:47.694Z,21.40
2022-12-11T10:25:09.427Z,21.08
2022-12-11T10:27:31.256Z,21.33
2022-12-11T10:30:23.288Z,21.20
2022-12-11T10:33:22.691Z,25.90
2022-12-11T10:35:55.706Z,24.92
2022-12-11T10:41:13.590Z,23.95
2022-12-11T10:43:48.370Z,21.23
2022-12-11T10:46:28.270Z,22.92
2022-12-11T10:48:59.166Z,24.00
2022-12-11T10:51:32.499Z,26.58
2022-12-11T10:54:42.400Z,25.70
2022-12-11T10:57:13.946Z,23.48
2022-12-11T10:59:48.747Z,26.58
2022-12-11T11:02:30.609Z,25.23
2022-12-11T11:05:10.687Z,25.52
2022-12-11T11:07:38.191Z,27.98
2022-12-11T11:10:15.444Z,21.88
2022-12-11T11:12:49.783Z,23.52
2022-12-11T11:15:27.110Z,25.88
2022-12-11T11:18:12.720Z,26.83
2022-12-11T11:20:47.934Z,26.00
2022-12-11T11:23:18.566Z,27.80
2022-12-11T11:25:57.023Z,25.05
2022-12-11T11:28:29.634Z,23.83
2022-12-11T11:31:03.917Z,24.33
2022-12-11T11:33:35.200Z,29.40
2022-12-11T11:36:07.971Z,29.83
2022-12-11T11:38:48.888Z,27.42
2022-12-11T11:41:25.247Z,21.90
2022-12-11T11:43:57.825Z,21.85
2022-12-11T11:46:45.999Z,24.88
2022-12-11T11:49:19.039Z,24.17
2022-12-11T11:54:37.837Z,23.60
2022-12-11T11:57:22.680Z,24.20
2022-12-11T11:59:58.452Z,25.00
2022-12-11T12:02:25.879Z,21.52
2022-12-11T12:04:53.222Z,24.15
2022-12-11T12:07:43.242Z,24.15
2022-12-11T12:10:26.534Z,23.25
2022-12-11T12:13:48.532Z,22.70
2022-12-11T12:16:53.812Z,20.80
2022-12-11T12:20:00.853Z,22.50
2022-12-11T12:22:55.228Z,23.13
2022-12-11T12:25:35.663Z,22.65
2022-12-11T12:28:18.940Z,21.02
2022-12-11T12:34:24.075Z,22.75
2022-12-11T12:37:19.590Z,24.23
2022-12-11T12:40:00.938Z,23.05
2022-12-11T12:43:21.337Z,22.05
2022-12-11T12:46:23.829Z,24.20
2022-12-11T12:48:55.275Z,23.63
2022-12-11T12:51:23.855Z,25.02
2022-12-11T12:53:59.307Z,22.13
2022-12-11T12:56:30.312Z,24.45
2022-12-11T12:58:58.014Z,24.10
2022-12-11T13:01:28.661Z,26.00
2022-12-11T13:04:02.182Z,25.85
2022-12-11T13:06:45.866Z,24.52
2022-12-11T13:09:39.273Z,23.40
2022-12-11T13:12:15.746Z,23.25
2022-12-11T13:14:43.027Z,21.02
2022-12-11T13:17:22.264Z,21.33
2022-12-11T13:19:57.560Z,19.58
2022-12-11T13:22:24.963Z,21.70
2022-12-11T13:24:52.079Z,21.45
2022-12-11T13:27:40.230Z,20.48
2022-12-11T13:30:19.810Z,21.65
2022-12-11T13:33:14.218Z,21.95
2022-12-11T13:35:41.600Z,21.98
2022-12-11T13:38:22.134Z,22.08
2022-12-11T13:40:56.326Z,24.00
2022-12-11T13:43:30.991Z,22.35
2022-12-11T13:46:03.101Z,21.58
2022-12-11T13:48:40.823Z,22.77
2022-12-11T13:51:08.106Z,25.85
2022-12-11T13:53:35.316Z,22.45
2022-12-11T13:56:08.125Z,23.20
2022-12-11T13:58:39.500Z,22.25
2022-12-11T14:01:16.962Z,21.10
2022-12-11T14:04:09.429Z,24.48
2022-12-11T14:06:39.733Z,23.48
2022-12-11T14:09:08.957Z,24.90
2022-12-11T14:11:42.457Z,23.67
2022-12-11T14:14:43.559Z,25.35
2022-12-11T14:17:18.166Z,24.83
2022-12-11T14:19:50.209Z,24.15
2022-12-11T14:22:22.741Z,23.23
2022-12-11T14:24:56.755Z,27.50
2022-12-11T14:27:26.278Z,26.60
2022-12-11T14:29:54.661Z,26.23
2022-12-11T14:32:32.956Z,26.02
2022-12-11T14:35:05.886Z,25.73
2022-12-11T14:40:14.359Z,25.35
2022-12-11T14:42:57.030Z,26.58
2022-12-11T14:45:38.297Z,27.17
2022-12-11T14:48:18.221Z,26.88
2022-12-11T14:50:52.032Z,27.33
2022-12-11T14:53:27.572Z,27.48
2022-12-11T14:56:00.020Z,27.27
2022-12-11T14:58:28.111Z,30.38
2022-12-11T15:01:06.008Z,30.17
2022-12-11T15:03:37.171Z,29.00
2022-12-11T15:06:27.790Z,27.98
2022-12-11T15:08:55.740Z,25.88
2022-12-11T15:11:31.790Z,31.00
2022-12-11T15:14:03.511Z,28.35
2022-12-11T15:16:38.259Z,30.60
2022-12-11T15:19:05.799Z,28.80
2022-12-11T15:21:36.059Z,30.13
2022-12-11T15:24:05.969Z,29.05
2022-12-11T15:26:37.562Z,29.80
2022-12-11T15:29:25.058Z,34.60
2022-12-11T15:32:21.835Z,34.53
2022-12-11T15:34:55.302Z,31.70
2022-12-11T15:37:38.424Z,30.88
2022-12-11T15:40:07.789Z,32.42
2022-12-11T15:42:40.043Z,32.90
2022-12-11T15:45:30.845Z,33.30
2022-12-11T15:47:59.406Z,39.05
2022-12-11T15:50:29.251Z,31.75
2022-12-11T15:52:56.988Z,31.15
2022-12-11T15:55:27.520Z,29.08
2022-12-11T15:57:59.357Z,29.02
2022-12-11T16:00:29.899Z,33.10
2022-12-11T16:02:58.220Z,31.13
2022-12-11T16:05:26.730Z,32.42
2022-12-11T16:07:59.562Z,31.45
2022-12-11T16:10:27.483Z,31.40
2022-12-11T16:12:59.275Z,33.00
2022-12-11T16:15:27.317Z,32.78
2022-12-11T16:18:16.234Z,32.28
2022-12-11T16:20:45.255Z,37.75
2022-12-11T16:23:14.636Z,38.53
2022-12-11T16:25:44.212Z,32.63
2022-12-11T16:28:15.757Z,34.70
2022-12-11T16:30:43.818Z,40.33
2022-12-11T16:33:13.064Z,34.75
2022-12-11T16:35:42.824Z,35.38
2022-12-11T16:38:11.650Z,33.55
2022-12-11T16:40:39.063Z,35.35
2022-12-11T16:43:06.273Z,35.80
2022-12-11T16:45:33.934Z,33.95
2022-12-11T16:48:04.758Z,37.08
2022-12-11T16:50:32.403Z,35.30
2022-12-11T16:52:59.823Z,36.78
2022-12-11T16:55:27.092Z,32.05
2022-12-11T16:57:55.070Z,39.45
2022-12-11T17:00:22.612Z,36.55
2022-12-11T17:02:49.837Z,32.55
2022-12-11T17:05:17.171Z,31.73
2022-12-11T17:07:44.424Z,32.45
2022-12-11T17:10:11.883Z,31.23
2022-12-11T17:12:39.363Z,30.95
2022-12-11T17:15:07.514Z,33.45
2022-12-11T17:17:34.725Z,36.90
2022-12-11T17:20:02.055Z,31.63
2022-12-11T17:22:29.793Z,33.92
2022-12-11T17:24:57.251Z,34.08
2022-12-11T17:27:24.457Z,38.72
2022-12-11T17:29:51.756Z,38.88
2022-12-11T17:32:19.145Z,45.42
2022-12-11T17:34:48.535Z,44.25
2022-12-11T17:37:17.261Z,42.53
2022-12-11T17:39:44.729Z,38.78
2022-12-11T17:42:11.986Z,38.35
2022-12-11T17:44:39.346Z,41.78
2022-12-11T17:47:11.061Z,54.42
2022-12-11T17:49:40.403Z,287.30
2022-12-11T17:52:08.087Z,233.85
2022-12-11T17:54:35.476Z,552.70
2022-12-11T17:57:02.866Z,184.25
2022-12-11T17:59:30.101Z,184.38
2022-12-11T18:01:57.893Z,148.88
2022-12-11T18:04:25.251Z,115.07
2022-12-11T18:06:52.590Z,64.07
2022-12-11T18:09:19.779Z,49.97
2022-12-11T18:11:46.979Z,43.20
2022-12-11T18:14:17.411Z,45.25
2022-12-11T18:16:45.113Z,50.22
2022-12-11T18:19:12.413Z,49.50
2022-12-11T18:21:43.974Z,63.33
2022-12-11T18:24:11.466Z,69.45
2022-12-11T18:26:38.902Z,59.78
2022-12-11T18:29:06.679Z,63.90
2022-12-11T18:31:38.898Z,61.08
2022-12-11T18:34:10.961Z,51.22
2022-12-11T18:36:38.405Z,57.20
2022-12-11T18:39:05.611Z,46.75
2022-12-11T18:41:32.834Z,43.58
2022-12-11T18:44:09.351Z,51.05
2022-12-11T18:46:39.425Z,50.22
2022-12-11T18:49:06.928Z,47.17
2022-12-11T18:51:34.349Z,45.08
2022-12-11T18:54:01.530Z,42.72
2022-12-11T18:56:28.662Z,43.75
2022-12-11T18:58:55.862Z,46.67
2022-12-11T19:01:29.071Z,49.83
2022-12-11T19:04:03.543Z,52.83
2022-12-11T19:06:35.291Z,41.42
2022-12-11T19:09:04.831Z,44.17
2022-12-11T19:11:33.716Z,46.60
2022-12-11T19:14:00.985Z,56.80
2022-12-11T19:16:35.419Z,41.38
2022-12-11T19:19:11.485Z,42.53
2022-12-11T19:21:39.741Z,39.83
2022-12-11T19:24:11.706Z,46.97
2022-12-11T19:26:38.963Z,46.90
2022-12-11T19:29:07.144Z,51.92
2022-12-11T19:31:35.201Z,50.22
2022-12-11T19:34:02.987Z,49.25
2022-12-11T19:36:31.710Z,55.55
2022-12-11T19:39:01.828Z,69.05
2022-12-11T19:41:31.172Z,55.50
2022-12-11T19:43:59.834Z,52.67
2022-12-11T19:46:28.639Z,51.17
2022-12-11T19:48:57.836Z,48.75
2022-12-11T19:51:43.385Z,45.47
2022-12-11T19:54:15.800Z,48.63
2022-12-11T19:56:44.007Z,51.08
2022-12-11T19:59:16.597Z,47.13
2022-12-11T20:01:47.888Z,51.42
2022-12-11T20:04:17.231Z,52.65
2022-12-11T20:06:46.207Z,47.95
2022-12-11T20:09:14.381Z,52.25
2022-12-11T20:11:44.976Z,48.20
2022-12-11T20:14:25.404Z,53.55
2022-12-11T20:17:11.127Z,54.20
2022-12-11T20:19:42.478Z,52.25
2022-12-11T20:22:09.916Z,50.75
2022-12-11T20:24:37.918Z,45.22
2022-12-11T20:27:05.769Z,48.45
2022-12-11T20:29:33.117Z,48.13
2022-12-11T20:32:00.503Z,46.55
2022-12-11T20:34:27.903Z,50.15
2022-12-11T20:36:56.226Z,48.25
2022-12-11T20:39:23.439Z,45.42
2022-12-11T20:41:50.666Z,47.33
2022-12-11T20:44:19.176Z,45.28
2022-12-11T20:46:46.323Z,44.30
2022-12-11T20:49:13.649Z,44.67
2022-12-11T20:51:41.361Z,46.75
2022-12-11T20:54:08.674Z,45.17
2022-12-11T20:56:36.102Z,48.00
2022-12-11T20:59:03.765Z,48.67
2022-12-11T21:01:33.032Z,50.08
2022-12-11T21:04:01.278Z,52.40
2022-12-11T21:06:36.384Z,46.08
2022-12-11T21:09:08.854Z,44.08
2022-12-11T21:11:36.077Z,49.75
2022-12-11T21:14:04.432Z,46.60
2022-12-11T21:16:32.433Z,45.83
2022-12-11T21:19:00.317Z,49.67
2022-12-11T21:21:30.938Z,45.38
2022-12-11T21:23:58.766Z,45.58
2022-12-11T21:26:26.328Z,49.85
2022-12-11T21:28:53.663Z,47.95
2022-12-11T21:31:21.043Z,46.17
2022-12-11T21:33:48.875Z,45.30
2022-12-11T21:36:16.658Z,43.63
2022-12-11T21:38:46.069Z,44.45
2022-12-11T21:41:23.637Z,47.60
2022-12-11T21:46:41.960Z,42.88
2022-12-11T21:49:09.728Z,41.92
2022-12-11T21:51:46.812Z,39.75
2022-12-11T21:54:18.865Z,42.35
2022-12-11T21:56:47.374Z,41.22
2022-12-11T21:59:15.557Z,43.30
2022-12-11T22:01:46.219Z,44.55
2022-12-11T22:04:16.014Z,45.03
2022-12-11T22:06:46.749Z,42.92
2022-12-11T22:09:16.188Z,45.03
2022-12-11T22:11:46.579Z,43.55
2022-12-11T22:14:16.936Z,48.83
2022-12-11T22:16:45.378Z,45.83
2022-12-11T22:19:12.942Z,46.58
2022-12-11T22:21:40.284Z,45.33
2022-12-11T22:24:08.067Z,47.55
2022-12-11T22:26:35.265Z,43.70
2022-12-11T22:29:02.509Z,46.47
2022-12-11T22:31:29.720Z,45.38
2022-12-11T22:33:57.111Z,45.78
2022-12-11T22:36:26.829Z,45.03
2022-12-11T22:38:54.807Z,43.88
2022-12-11T22:41:31.762Z,47.17
2022-12-11T22:44:05.682Z,43.85
2022-12-11T22:46:33.056Z,44.90
2022-12-11T22:49:00.279Z,45.13
2022-12-11T22:51:27.576Z,47.75
2022-12-11T22:53:54.802Z,46.63
2022-12-11T22:56:22.005Z,44.63
2022-12-11T22:58:49.274Z,43.28
2022-12-11T23:01:21.655Z,45.92
2022-12-11T23:03:49.405Z,46.88
2022-12-11T23:06:20.540Z,46.13
2022-12-11T23:08:47.902Z,49.35
2022-12-11T23:11:22.965Z,51.00
2022-12-11T23:13:50.251Z,47.33
2022-12-11T23:16:17.698Z,45.72
2022-12-11T23:18:45.155Z,44.42
2022-12-11T23:21:13.201Z,48.17
2022-12-11T23:23:41.447Z,50.03
2022-12-11T23:26:11.271Z,48.65
2022-12-11T23:28:39.420Z,47.50
2022-12-11T23:31:07.830Z,54.20
2022-12-11T23:33:35.135Z,48.97
2022-12-11T23:36:03.304Z,50.50
2022-12-11T23:38:30.801Z,49.83
2022-12-11T23:41:04.132Z,47.53
2022-12-11T23:43:31.956Z,49.00
2022-12-11T23:45:59.231Z,49.50
2022-12-11T23:48:26.746Z,54.83
2022-12-11T23:51:00.270Z,49.97
2022-12-11T23:53:28.405Z,55.58
2022-12-11T23:55:55.810Z,53.50
2022-12-11T23:58:22.997Z,55.88
